createdAt,value
2024-01-20T00:00:50.028Z,2.42
2024-01-20T00:03:52.026Z,4.50
2024-01-20T00:06:54.118Z,3.47
2024-01-20T00:09:56.681Z,2.85
2024-01-20T00:12:58.641Z,1.67
2024-01-20T00:16:02.061Z,2.78
2024-01-20T00:19:04.694Z,2.55
2024-01-20T00:22:06.889Z,2.60
2024-01-20T00:25:10.173Z,2.75
2024-01-20T00:28:13.685Z,3.08
2024-01-20T00:31:17.076Z,2.97
2024-01-20T00:34:19.664Z,3.05
2024-01-20T00:37:21.811Z,2.80
2024-01-20T00:40:23.934Z,2.38
2024-01-20T00:43:26.903Z,3.22
2024-01-20T00:46:30.462Z,4.25
2024-01-20T00:49:32.740Z,2.15
2024-01-20T00:52:34.711Z,2.47
2024-01-20T00:55:36.804Z,4.15
2024-01-20T00:58:38.906Z,4.03
2024-01-20T01:01:43.134Z,2.15
2024-01-20T01:04:45.299Z,2.97
2024-01-20T01:07:47.665Z,5.85
2024-01-20T01:10:51.254Z,3.67
2024-01-20T01:13:53.601Z,4.60
2024-01-20T01:16:56.954Z,4.55
2024-01-20T01:19:59.670Z,4.55
2024-01-20T01:23:01.639Z,5.00
2024-01-20T01:26:04.962Z,5.43
2024-01-20T01:29:07.128Z,4.82
2024-01-20T01:32:10.514Z,4.40
2024-01-20T01:35:12.514Z,4.97
2024-01-20T01:38:14.700Z,4.85
2024-01-20T01:41:17.135Z,4.95
2024-01-20T01:44:19.146Z,4.53
2024-01-20T01:47:23.450Z,5.40
2024-01-20T01:50:25.636Z,5.60
2024-01-20T01:53:28.443Z,4.43
2024-01-20T01:56:30.692Z,4.68
2024-01-20T01:59:33.061Z,5.30
2024-01-20T02:02:36.314Z,5.28
2024-01-20T02:05:38.556Z,4.88
2024-01-20T02:08:41.976Z,5.15
2024-01-20T02:11:45.300Z,5.32
2024-01-20T02:14:48.992Z,4.72
2024-01-20T02:17:53.923Z,5.47
2024-01-20T02:20:56.010Z,5.88
2024-01-20T02:24:00.447Z,5.22
2024-01-20T02:27:02.446Z,5.35
2024-01-20T02:30:06.600Z,5.28
2024-01-20T02:33:08.679Z,5.13
2024-01-20T02:36:10.655Z,5.93
2024-01-20T02:39:14.971Z,6.07
2024-01-20T02:42:17.036Z,4.97
2024-01-20T02:45:19.547Z,4.78
2024-01-20T02:48:21.563Z,5.10
2024-01-20T02:51:24.366Z,4.95
2024-01-20T02:54:27.809Z,5.03
2024-01-20T02:57:30.338Z,4.47
2024-01-20T03:00:32.333Z,4.88
2024-01-20T03:03:35.510Z,5.00
2024-01-20T03:06:37.502Z,4.45
2024-01-20T03:09:40.874Z,5.80
2024-01-20T03:12:42.749Z,5.18
2024-01-20T03:15:45.257Z,5.85
2024-01-20T03:18:47.383Z,5.20
2024-01-20T03:21:50.369Z,5.13
2024-01-20T03:24:53.660Z,6.22
2024-01-20T03:27:55.636Z,4.93
2024-01-20T03:30:58.225Z,5.55
2024-01-20T03:34:00.316Z,5.90
2024-01-20T03:37:03.228Z,4.78
2024-01-20T03:40:08.518Z,5.70
2024-01-20T03:43:11.184Z,4.65
2024-01-20T03:46:13.166Z,5.50
2024-01-20T03:49:16.456Z,5.15
2024-01-20T03:52:19.196Z,5.38
2024-01-20T03:55:22.663Z,5.40
2024-01-20T03:58:24.797Z,6.05
2024-01-20T04:01:27.108Z,5.70
2024-01-20T04:04:29.261Z,4.03
2024-01-20T04:07:32.048Z,5.00
2024-01-20T04:10:35.411Z,4.72
2024-01-20T04:13:38.081Z,4.50
2024-01-20T04:16:40.029Z,4.60
2024-01-20T04:19:42.063Z,4.05
2024-01-20T04:22:44.000Z,3.88
2024-01-20T04:25:48.223Z,4.60
2024-01-20T04:28:51.029Z,3.88
2024-01-20T04:31:52.872Z,4.90
2024-01-20T04:34:55.039Z,3.78
2024-01-20T04:37:56.882Z,4.93
2024-01-20T04:41:00.208Z,5.05
2024-01-20T04:44:02.194Z,4.88
2024-01-20T04:47:04.545Z,4.72
2024-01-20T04:50:08.179Z,4.43
2024-01-20T04:53:10.096Z,4.55
2024-01-20T04:56:14.577Z,4.50
2024-01-20T04:59:16.566Z,3.97
2024-01-20T05:02:19.049Z,4.43
2024-01-20T05:05:20.988Z,4.82
2024-01-20T05:08:22.969Z,5.63
2024-01-20T05:11:26.326Z,5.00
2024-01-20T05:17:30.907Z,5.00
2024-01-20T05:20:32.807Z,4.53
2024-01-20T05:23:35.006Z,5.10
2024-01-20T05:26:40.141Z,5.07
2024-01-20T05:29:42.894Z,5.05
2024-01-20T05:32:47.143Z,5.07
2024-01-20T05:35:49.985Z,4.65
2024-01-20T05:38:52.086Z,5.43
2024-01-20T05:41:56.265Z,4.90
2024-01-20T05:44:58.404Z,4.75
2024-01-20T05:48:00.945Z,4.43
2024-01-20T05:51:03.524Z,4.70
2024-01-20T05:54:05.808Z,5.18
2024-01-20T05:57:09.817Z,5.28
2024-01-20T06:00:12.686Z,4.65
2024-01-20T06:03:15.278Z,5.00
2024-01-20T06:06:17.901Z,5.28
2024-01-20T06:09:20.010Z,5.03
2024-01-20T06:12:24.460Z,5.10
2024-01-20T06:15:26.507Z,6.05
2024-01-20T06:18:28.864Z,5.60
2024-01-20T06:21:30.879Z,5.38
2024-01-20T06:24:32.889Z,4.68
2024-01-20T06:27:36.598Z,4.35
2024-01-20T06:30:38.757Z,4.57
2024-01-20T06:33:40.785Z,4.72
2024-01-20T06:36:42.842Z,4.97
2024-01-20T06:39:44.868Z,5.20
2024-01-20T06:42:49.142Z,4.93
2024-01-20T06:45:51.058Z,6.90
2024-01-20T06:48:53.368Z,6.60
2024-01-20T06:51:55.284Z,6.38
2024-01-20T06:54:57.197Z,7.45
2024-01-20T06:58:00.474Z,9.23
2024-01-20T07:01:02.731Z,11.45
2024-01-20T07:04:05.014Z,6.78
2024-01-20T07:07:07.794Z,6.15
2024-01-20T07:10:10.405Z,5.38
2024-01-20T07:13:13.730Z,4.80
2024-01-20T07:16:16.942Z,6.22
2024-01-20T07:19:18.912Z,8.13
2024-01-20T07:22:20.854Z,9.45
2024-01-20T07:25:22.773Z,8.27
2024-01-20T07:28:26.343Z,8.00
2024-01-20T07:31:28.225Z,6.03
2024-01-20T07:34:30.688Z,7.00
2024-01-20T07:37:32.656Z,5.85
2024-01-20T07:40:35.648Z,6.13
2024-01-20T07:43:38.892Z,7.30
2024-01-20T07:46:41.069Z,5.15
2024-01-20T07:49:43.758Z,5.20
2024-01-20T07:52:45.727Z,5.32
2024-01-20T07:55:49.693Z,5.85
2024-01-20T07:58:53.114Z,6.80
2024-01-20T08:01:55.048Z,9.25
2024-01-20T08:04:57.083Z,8.40
2024-01-20T08:07:59.084Z,9.95
2024-01-20T08:11:01.001Z,9.23
2024-01-20T08:14:04.328Z,8.55
2024-01-20T08:17:06.210Z,8.73
2024-01-20T08:20:09.145Z,8.23
2024-01-20T08:23:11.397Z,8.13
2024-01-20T08:26:13.317Z,8.25
2024-01-20T08:29:18.481Z,7.97
2024-01-20T08:32:20.444Z,9.80
2024-01-20T08:35:22.432Z,8.93
2024-01-20T08:38:24.417Z,8.23
2024-01-20T08:41:26.408Z,8.77
2024-01-20T08:44:30.025Z,8.43
2024-01-20T08:47:31.908Z,8.88
2024-01-20T08:50:34.366Z,9.20
2024-01-20T08:53:36.288Z,9.48
2024-01-20T08:56:38.433Z,8.57
2024-01-20T08:59:41.669Z,8.65
2024-01-20T09:02:44.787Z,8.73
2024-01-20T09:05:46.765Z,8.23
2024-01-20T09:08:49.372Z,7.53
2024-01-20T09:11:51.269Z,8.82
2024-01-20T09:14:56.596Z,8.23
2024-01-20T09:17:58.591Z,8.63
2024-01-20T09:21:00.586Z,7.60
2024-01-20T09:24:05.078Z,7.30
2024-01-20T09:27:07.912Z,7.20
2024-01-20T09:30:12.659Z,8.75
2024-01-20T09:33:15.473Z,7.82
2024-01-20T09:36:17.548Z,8.00
2024-01-20T09:39:19.672Z,7.88
2024-01-20T09:42:21.780Z,8.73
2024-01-20T09:45:26.235Z,8.77
2024-01-20T09:48:28.379Z,8.50
2024-01-20T09:51:30.580Z,8.52
2024-01-20T09:54:32.751Z,7.90
2024-01-20T09:57:37.498Z,7.78
2024-01-20T10:00:42.419Z,8.93
2024-01-20T10:03:45.712Z,8.52
2024-01-20T10:06:47.722Z,7.95
2024-01-20T10:09:49.685Z,8.23
2024-01-20T10:12:52.392Z,7.82
2024-01-20T10:15:57.249Z,6.90
2024-01-20T10:18:59.311Z,7.80
2024-01-20T10:22:02.265Z,7.88
2024-01-20T10:25:07.835Z,8.25
2024-01-20T10:28:10.360Z,9.50
2024-01-20T10:31:13.858Z,8.43
2024-01-20T10:34:15.877Z,8.43
2024-01-20T10:37:23.851Z,8.77
2024-01-20T10:40:25.868Z,7.13
2024-01-20T10:43:30.037Z,8.02
2024-01-20T10:46:37.632Z,7.35
2024-01-20T10:49:44.512Z,7.10
2024-01-20T10:52:48.591Z,7.15
2024-01-20T10:55:51.786Z,6.72
2024-01-20T10:59:01.719Z,6.88
2024-01-20T11:02:06.470Z,9.32
2024-01-20T11:05:18.663Z,9.63
2024-01-20T11:08:27.690Z,9.43
2024-01-20T11:11:30.685Z,9.55
2024-01-20T11:14:32.950Z,10.60
2024-01-20T11:17:36.386Z,10.38
2024-01-20T11:20:39.039Z,11.07
2024-01-20T11:23:40.918Z,11.82
2024-01-20T11:26:42.955Z,11.00
2024-01-20T11:29:44.812Z,10.82
2024-01-20T11:32:48.166Z,9.25
2024-01-20T11:35:53.544Z,7.25
2024-01-20T11:38:56.924Z,8.32
2024-01-20T11:42:02.962Z,9.20
2024-01-20T11:45:06.242Z,8.75
2024-01-20T11:48:13.993Z,8.90
2024-01-20T11:51:18.212Z,8.68
2024-01-20T11:54:20.257Z,9.02
2024-01-20T11:57:23.633Z,8.45
2024-01-20T12:00:25.626Z,8.85
2024-01-20T12:03:29.252Z,9.07
2024-01-20T12:06:32.019Z,8.25
2024-01-20T12:09:34.027Z,8.95
2024-01-20T12:12:37.429Z,8.23
2024-01-20T12:15:39.770Z,8.05
2024-01-20T12:18:43.355Z,7.72
2024-01-20T12:21:46.756Z,7.50
2024-01-20T12:24:50.044Z,7.63
2024-01-20T12:27:52.942Z,7.85
2024-01-20T12:30:56.778Z,7.45
2024-01-20T12:34:01.075Z,7.90
2024-01-20T12:37:04.065Z,8.60
2024-01-20T12:40:08.331Z,8.07
2024-01-20T12:43:12.247Z,7.93
2024-01-20T12:46:14.332Z,7.60
2024-01-20T12:49:18.178Z,8.10
2024-01-20T12:52:20.451Z,7.63
2024-01-20T12:55:22.509Z,6.78
2024-01-20T12:58:24.853Z,7.70
2024-01-20T13:01:28.094Z,8.60
2024-01-20T13:04:33.135Z,8.40
2024-01-20T13:07:35.112Z,7.57
2024-01-20T13:10:37.036Z,8.48
2024-01-20T13:13:39.316Z,8.98
2024-01-20T13:16:41.420Z,8.98
2024-01-20T13:19:45.492Z,9.02
2024-01-20T13:22:47.843Z,8.68
2024-01-20T13:25:52.972Z,7.50
2024-01-20T13:28:54.977Z,7.82
2024-01-20T13:31:57.658Z,8.15
2024-01-20T13:35:00.899Z,8.10
2024-01-20T13:38:04.247Z,9.15
2024-01-20T13:41:06.328Z,8.98
2024-01-20T13:44:08.384Z,8.05
2024-01-20T13:47:10.613Z,9.32
2024-01-20T13:50:14.018Z,8.85
2024-01-20T13:53:16.454Z,8.63
2024-01-20T13:56:19.049Z,9.23
2024-01-20T13:59:20.971Z,9.27
2024-01-20T14:02:23.630Z,9.18
2024-01-20T14:05:27.071Z,10.10
2024-01-20T14:08:28.922Z,9.30
2024-01-20T14:11:31.638Z,8.93
2024-01-20T14:14:33.482Z,8.73
2024-01-20T14:17:35.764Z,8.85
2024-01-20T14:20:39.168Z,9.27
2024-01-20T14:23:41.117Z,8.63
2024-01-20T14:26:43.647Z,7.88
2024-01-20T14:29:45.718Z,8.73
2024-01-20T14:32:48.539Z,10.18
2024-01-20T14:35:52.048Z,10.27
2024-01-20T14:38:53.952Z,10.50
2024-01-20T14:41:55.977Z,10.45
2024-01-20T14:44:58.548Z,11.32
2024-01-20T14:48:00.728Z,10.27
2024-01-20T14:51:05.318Z,10.18
2024-01-20T14:54:07.464Z,10.75
2024-01-20T14:57:09.598Z,10.57
2024-01-20T15:00:13.120Z,10.77
2024-01-20T15:03:15.266Z,11.60
2024-01-20T15:06:19.016Z,11.55
2024-01-20T15:09:21.187Z,11.63
2024-01-20T15:12:23.550Z,10.25
2024-01-20T15:15:25.588Z,10.07
2024-01-20T15:18:27.802Z,11.15
2024-01-20T15:21:31.213Z,9.88
2024-01-20T15:24:33.099Z,9.93
2024-01-20T15:27:36.984Z,9.68
2024-01-20T15:30:39.354Z,9.18
2024-01-20T15:33:41.392Z,9.15
2024-01-20T15:36:45.352Z,9.32
2024-01-20T15:39:47.443Z,9.27
2024-01-20T15:42:50.425Z,9.85
2024-01-20T15:45:52.460Z,9.60
2024-01-20T15:48:54.635Z,9.00
2024-01-20T15:51:57.989Z,8.80
2024-01-20T15:55:00.468Z,10.10
2024-01-20T15:58:02.423Z,10.43
2024-01-20T16:01:05.638Z,10.98
2024-01-20T16:04:08.983Z,11.73
2024-01-20T16:07:16.155Z,11.35
2024-01-20T16:10:18.536Z,10.85
2024-01-20T16:13:20.560Z,11.43
2024-01-20T16:16:23.394Z,12.63
2024-01-20T16:19:25.635Z,12.10
2024-01-20T16:22:30.493Z,11.90
2024-01-20T16:25:32.965Z,12.50
2024-01-20T16:28:35.239Z,12.68
2024-01-20T16:31:37.168Z,12.45
2024-01-20T16:34:40.412Z,12.45
2024-01-20T16:37:43.836Z,11.60
2024-01-20T16:40:46.462Z,12.20
2024-01-20T16:43:48.456Z,13.15
2024-01-20T16:46:52.407Z,13.15
2024-01-20T16:49:55.467Z,13.20
2024-01-20T16:53:01.093Z,13.88
2024-01-20T16:56:03.189Z,14.10
2024-01-20T16:59:05.032Z,13.23
2024-01-20T17:02:07.840Z,12.27
2024-01-20T17:05:10.043Z,13.93
2024-01-20T17:08:13.644Z,13.57
2024-01-20T17:11:15.637Z,13.98
2024-01-20T17:14:19.225Z,14.93
2024-01-20T17:17:22.081Z,15.60
2024-01-20T17:20:24.028Z,16.20
2024-01-20T17:23:29.038Z,15.32
2024-01-20T17:26:31.867Z,19.45
2024-01-20T17:29:33.985Z,15.77
2024-01-20T17:32:38.858Z,13.50
2024-01-20T17:35:40.775Z,14.43
2024-01-20T17:38:44.389Z,14.50
2024-01-20T17:41:46.436Z,12.95
2024-01-20T17:44:49.042Z,13.85
2024-01-20T17:47:51.006Z,14.57
2024-01-20T17:50:53.304Z,14.30
2024-01-20T17:53:56.713Z,13.60
2024-01-20T17:56:58.869Z,13.77
2024-01-20T18:00:01.013Z,14.27
2024-01-20T18:03:02.955Z,13.23
2024-01-20T18:06:05.233Z,14.38
2024-01-20T18:09:08.725Z,14.45
2024-01-20T18:12:10.732Z,13.60
2024-01-20T18:15:13.111Z,14.48
2024-01-20T18:18:15.240Z,13.32
2024-01-20T18:21:18.018Z,13.75
2024-01-20T18:24:21.466Z,14.50
2024-01-20T18:27:23.420Z,14.25
2024-01-20T18:30:25.978Z,12.52
2024-01-20T18:33:28.388Z,13.73
2024-01-20T18:36:30.765Z,13.00
2024-01-20T18:39:34.923Z,11.85
2024-01-20T18:42:37.534Z,11.52
2024-01-20T18:45:40.230Z,13.02
2024-01-20T18:48:42.301Z,12.70
2024-01-20T18:51:45.107Z,13.73
2024-01-20T18:54:48.595Z,13.43
2024-01-20T18:57:50.545Z,19.80
2024-01-20T19:00:53.086Z,17.15
2024-01-20T19:03:55.394Z,16.92
2024-01-20T19:06:57.863Z,13.02
2024-01-20T19:10:02.464Z,16.77
2024-01-20T19:13:04.687Z,14.98
2024-01-20T19:16:07.485Z,17.75
2024-01-20T19:19:09.743Z,16.98
2024-01-20T19:22:11.915Z,18.27
2024-01-20T19:25:15.422Z,19.08
2024-01-20T19:28:17.397Z,22.08
2024-01-20T19:31:19.244Z,20.45
2024-01-20T19:34:21.855Z,21.17
2024-01-20T19:37:23.763Z,20.27
2024-01-20T19:40:27.193Z,18.98
2024-01-20T19:43:29.127Z,17.20
2024-01-20T19:46:31.819Z,18.27
2024-01-20T19:49:33.876Z,16.80
2024-01-20T19:52:36.066Z,16.58
2024-01-20T19:55:41.379Z,17.02
2024-01-20T19:58:43.571Z,13.77
2024-01-20T20:01:46.887Z,16.02
2024-01-20T20:04:48.976Z,16.35
2024-01-20T20:07:51.638Z,15.65
2024-01-20T20:10:54.978Z,14.93
2024-01-20T20:13:58.406Z,14.70
2024-01-20T20:17:00.400Z,13.70
2024-01-20T20:20:02.507Z,13.77
2024-01-20T20:23:04.841Z,17.08
2024-01-20T20:26:09.758Z,15.95
2024-01-20T20:29:13.001Z,14.30
2024-01-20T20:32:19.429Z,15.07
2024-01-20T20:35:21.398Z,14.57
2024-01-20T20:38:23.543Z,14.55
2024-01-20T20:41:26.929Z,14.90
2024-01-20T20:44:29.592Z,13.23
2024-01-20T20:47:33.690Z,13.90
2024-01-20T20:50:36.524Z,13.35
2024-01-20T20:53:38.519Z,12.35
2024-01-20T20:56:41.954Z,13.32
2024-01-20T20:59:45.726Z,13.15
2024-01-20T21:02:48.778Z,6.20
2024-01-20T21:05:50.764Z,6.75
2024-01-20T21:08:54.862Z,7.50
2024-01-20T21:11:58.627Z,7.97
2024-01-20T21:15:00.549Z,7.85
2024-01-20T21:18:02.675Z,8.50
2024-01-20T21:21:05.768Z,9.30
2024-01-20T21:24:09.973Z,8.98
2024-01-20T21:27:13.569Z,9.73
2024-01-20T21:30:17.498Z,10.05
2024-01-20T21:33:19.572Z,10.43
2024-01-20T21:36:21.637Z,7.07
2024-01-20T21:39:23.871Z,8.25
2024-01-20T21:42:27.279Z,6.28
2024-01-20T21:45:29.472Z,4.30
2024-01-20T21:48:31.629Z,5.32
2024-01-20T21:51:34.484Z,5.28
2024-01-20T21:54:36.553Z,7.82
2024-01-20T21:57:40.624Z,7.05
2024-01-20T22:00:43.974Z,5.25
2024-01-20T22:03:47.620Z,7.72
2024-01-20T22:06:51.430Z,6.88
2024-01-20T22:09:53.500Z,6.97
2024-01-20T22:12:56.862Z,7.78
2024-01-20T22:15:59.414Z,5.97
2024-01-20T22:19:01.648Z,4.78
2024-01-20T22:22:04.657Z,8.10
2024-01-20T22:25:10.813Z,7.05
2024-01-20T22:28:14.090Z,6.07
2024-01-20T22:31:16.325Z,6.28
2024-01-20T22:34:18.337Z,7.57
2024-01-20T22:37:20.539Z,5.90
2024-01-20T22:40:23.900Z,8.70
2024-01-20T22:43:27.424Z,4.57
2024-01-20T22:46:30.928Z,3.33
2024-01-20T22:49:34.589Z,3.60
2024-01-20T22:52:36.659Z,3.63
2024-01-20T22:55:39.403Z,4.30
2024-01-20T22:58:43.917Z,5.93
2024-01-20T23:01:46.421Z,4.03
2024-01-20T23:04:50.758Z,4.75
2024-01-20T23:07:52.969Z,4.93
2024-01-20T23:10:55.139Z,3.58
2024-01-20T23:13:58.501Z,6.28
2024-01-20T23:17:01.583Z,4.70
2024-01-20T23:20:04.058Z,6.95
2024-01-20T23:23:06.438Z,6.40
2024-01-20T23:26:08.439Z,7.78
2024-01-20T23:29:12.105Z,6.43
2024-01-20T23:32:14.429Z,4.80
2024-01-20T23:35:16.465Z,5.45
2024-01-20T23:38:19.167Z,6.13
2024-01-20T23:41:21.050Z,5.90
2024-01-20T23:44:24.608Z,5.03
2024-01-20T23:47:26.537Z,3.20
2024-01-20T23:50:28.606Z,4.97
2024-01-20T23:53:31.174Z,2.50
2024-01-20T23:56:33.193Z,5.57
2024-01-20T23:59:37.577Z,5.85
